createdAt,value
2023-01-30T00:01:44.980Z,16.08
2023-01-30T00:04:13.001Z,16.55
2023-01-30T00:06:41.475Z,16.05
2023-01-30T00:09:11.133Z,14.48
2023-01-30T00:11:37.956Z,12.60
2023-01-30T00:14:04.840Z,14.80
2023-01-30T00:16:31.738Z,15.48
2023-01-30T00:18:58.658Z,17.23
2023-01-30T00:21:25.437Z,15.43
2023-01-30T00:23:52.488Z,15.68
2023-01-30T00:26:20.461Z,14.73
2023-01-30T00:28:47.300Z,18.45
2023-01-30T00:31:14.159Z,16.25
2023-01-30T00:33:41.065Z,16.77
2023-01-30T00:36:08.306Z,13.80
2023-01-30T00:38:35.197Z,16.75
2023-01-30T00:41:02.261Z,15.63
2023-01-30T00:43:48.341Z,17.05
2023-01-30T00:47:09.009Z,16.40
2023-01-30T00:49:37.097Z,15.23
2023-01-30T00:52:04.336Z,17.13
2023-01-30T00:54:31.630Z,14.45
2023-01-30T00:56:58.444Z,16.75
2023-01-30T00:59:25.588Z,17.48
2023-01-30T01:01:52.526Z,16.67
2023-01-30T01:04:19.646Z,16.25
2023-01-30T01:06:46.633Z,15.50
2023-01-30T01:09:13.451Z,14.52
2023-01-30T01:11:40.305Z,16.80
2023-01-30T01:14:07.583Z,16.63
2023-01-30T01:16:35.597Z,16.20
2023-01-30T01:19:02.750Z,17.17
2023-01-30T01:21:29.609Z,16.52
2023-01-30T01:24:00.765Z,17.20
2023-01-30T01:26:28.037Z,17.17
2023-01-30T01:28:56.546Z,15.57
2023-01-30T01:31:24.551Z,15.32
2023-01-30T01:33:51.907Z,17.35
2023-01-30T01:36:42.508Z,16.73
2023-01-30T01:39:06.229Z,16.92
2023-01-30T01:41:33.065Z,16.92
2023-01-30T01:44:09.632Z,16.27
2023-01-30T01:46:44.215Z,16.85
2023-01-30T01:49:25.041Z,16.83
2023-01-30T01:52:13.004Z,16.38
2023-01-30T01:54:45.561Z,14.50
2023-01-30T01:57:18.236Z,15.98
2023-01-30T01:59:55.598Z,14.60
2023-01-30T02:02:22.729Z,17.60
2023-01-30T02:05:05.204Z,16.20
2023-01-30T02:07:35.578Z,16.42
2023-01-30T02:10:02.881Z,16.98
2023-01-30T02:12:30.051Z,16.95
2023-01-30T02:14:59.107Z,15.57
2023-01-30T02:17:26.001Z,17.10
2023-01-30T02:20:12.318Z,17.70
2023-01-30T02:22:57.337Z,16.63
2023-01-30T02:25:36.262Z,16.27
2023-01-30T02:28:31.783Z,16.67
2023-01-30T02:31:16.745Z,16.25
2023-01-30T02:33:57.818Z,17.02
2023-01-30T02:36:52.087Z,17.05
2023-01-30T02:39:53.829Z,16.20
2023-01-30T02:42:49.995Z,16.63
2023-01-30T02:45:26.601Z,16.58
2023-01-30T02:48:07.769Z,17.13
2023-01-30T02:50:44.258Z,17.10
2023-01-30T02:53:12.341Z,17.55
2023-01-30T02:55:42.126Z,16.65
2023-01-30T02:58:09.573Z,16.95
2023-01-30T03:01:07.408Z,16.35
2023-01-30T03:03:40.428Z,18.33
2023-01-30T03:06:12.725Z,17.20
2023-01-30T03:08:48.064Z,16.75
2023-01-30T03:11:15.177Z,16.98
2023-01-30T03:13:52.521Z,15.52
2023-01-30T03:16:31.710Z,16.63
2023-01-30T03:19:01.579Z,16.40
2023-01-30T03:21:28.373Z,15.80
2023-01-30T03:23:55.188Z,16.60
2023-01-30T03:26:27.996Z,16.65
2023-01-30T03:28:55.364Z,17.75
2023-01-30T03:31:22.287Z,17.85
2023-01-30T03:33:49.184Z,15.48
2023-01-30T03:36:16.183Z,15.38
2023-01-30T03:38:43.109Z,16.60
2023-01-30T03:41:10.024Z,16.58
2023-01-30T03:43:36.812Z,17.35
2023-01-30T03:46:03.716Z,17.70
2023-01-30T03:48:30.598Z,16.30
2023-01-30T03:50:57.369Z,17.08
2023-01-30T03:53:24.163Z,16.20
2023-01-30T03:55:50.933Z,15.73
2023-01-30T03:58:17.722Z,16.38
2023-01-30T04:00:44.600Z,17.83
2023-01-30T04:03:11.564Z,14.10
2023-01-30T04:05:38.360Z,16.50
2023-01-30T04:08:05.346Z,17.00
2023-01-30T04:10:32.145Z,16.42
2023-01-30T04:12:58.963Z,17.15
2023-01-30T04:15:25.734Z,16.70
2023-01-30T04:17:52.514Z,15.77
2023-01-30T04:20:20.507Z,16.42
2023-01-30T04:22:47.354Z,16.88
2023-01-30T04:25:14.181Z,13.30
2023-01-30T04:27:40.967Z,17.67
2023-01-30T04:30:08.326Z,17.77
2023-01-30T04:32:35.118Z,14.68
2023-01-30T04:35:01.961Z,17.55
2023-01-30T04:37:28.782Z,14.55
2023-01-30T04:39:55.549Z,17.23
2023-01-30T04:42:22.421Z,15.00
2023-01-30T04:44:49.222Z,17.15
2023-01-30T04:47:16.758Z,12.73
2023-01-30T04:49:43.718Z,16.30
2023-01-30T04:52:10.491Z,14.55
2023-01-30T04:54:37.289Z,13.95
2023-01-30T04:57:04.369Z,16.10
2023-01-30T04:59:31.320Z,15.60
2023-01-30T05:01:58.139Z,15.60
2023-01-30T05:04:25.162Z,13.23
2023-01-30T05:06:51.949Z,15.07
2023-01-30T05:09:18.801Z,15.43
2023-01-30T05:11:45.569Z,16.05
2023-01-30T05:14:12.398Z,15.82
2023-01-30T05:16:39.155Z,15.25
2023-01-30T05:19:05.929Z,14.50
2023-01-30T05:21:32.731Z,15.38
2023-01-30T05:23:59.602Z,15.15
2023-01-30T05:26:26.450Z,15.30
2023-01-30T05:28:54.948Z,13.60
2023-01-30T05:31:21.930Z,14.52
2023-01-30T05:33:50.101Z,14.57
2023-01-30T05:36:19.169Z,16.13
2023-01-30T05:38:46.458Z,15.48
2023-01-30T05:41:15.342Z,13.82
2023-01-30T05:43:42.599Z,15.05
2023-01-30T05:46:12.585Z,12.88
2023-01-30T05:48:40.004Z,15.63
2023-01-30T05:51:07.463Z,12.95
2023-01-30T05:53:35.250Z,13.65
2023-01-30T05:56:05.303Z,12.35
2023-01-30T05:58:33.216Z,10.07
2023-01-30T06:01:05.641Z,12.57
2023-01-30T06:03:32.694Z,12.85
2023-01-30T06:06:01.918Z,12.18
2023-01-30T06:08:29.076Z,15.25
2023-01-30T06:10:59.465Z,14.10
2023-01-30T06:13:26.225Z,15.00
2023-01-30T06:15:53.517Z,12.75
2023-01-30T06:18:20.377Z,14.25
2023-01-30T06:20:49.295Z,15.45
2023-01-30T06:23:16.519Z,14.13
2023-01-30T06:25:45.280Z,13.15
2023-01-30T06:28:13.051Z,13.80
2023-01-30T06:30:40.121Z,14.10
2023-01-30T06:33:07.658Z,14.23
2023-01-30T06:35:34.799Z,13.65
2023-01-30T06:38:01.578Z,12.50
2023-01-30T06:40:28.365Z,13.00
2023-01-30T06:42:55.335Z,13.35
2023-01-30T06:45:22.269Z,13.20
2023-01-30T06:47:54.356Z,14.20
2023-01-30T06:50:25.132Z,12.38
2023-01-30T06:52:53.191Z,13.73
2023-01-30T06:55:22.587Z,13.05
2023-01-30T06:57:49.560Z,10.98
2023-01-30T07:00:20.557Z,11.10
2023-01-30T07:02:47.721Z,10.95
2023-01-30T07:05:14.555Z,12.10
2023-01-30T07:07:41.338Z,10.40
2023-01-30T07:10:09.535Z,12.48
2023-01-30T07:12:37.032Z,11.57
2023-01-30T07:15:05.584Z,9.35
2023-01-30T07:17:32.905Z,9.80
2023-01-30T07:19:59.807Z,10.05
2023-01-30T07:22:26.735Z,9.18
2023-01-30T07:24:53.573Z,13.07
2023-01-30T07:27:20.671Z,10.93
2023-01-30T07:29:47.476Z,10.75
2023-01-30T07:32:18.475Z,11.70
2023-01-30T07:34:45.744Z,10.73
2023-01-30T07:37:12.702Z,11.73
2023-01-30T07:39:39.500Z,11.70
2023-01-30T07:42:06.467Z,11.00
2023-01-30T07:44:34.277Z,11.55
2023-01-30T07:47:01.713Z,9.57
2023-01-30T07:49:28.889Z,9.30
2023-01-30T07:51:55.804Z,10.55
2023-01-30T07:54:22.664Z,9.38
2023-01-30T07:56:49.498Z,10.55
2023-01-30T07:59:16.314Z,10.23
2023-01-30T08:01:43.224Z,9.77
2023-01-30T08:04:10.063Z,10.90
2023-01-30T08:06:39.408Z,9.38
2023-01-30T08:09:07.393Z,10.05
2023-01-30T08:11:35.001Z,10.65
2023-01-30T08:14:02.213Z,10.77
2023-01-30T08:16:29.131Z,10.32
2023-01-30T08:18:55.982Z,10.02
2023-01-30T08:21:22.834Z,8.88
2023-01-30T08:23:49.675Z,10.10
2023-01-30T08:26:16.614Z,9.32
2023-01-30T08:28:43.507Z,11.68
2023-01-30T08:31:13.249Z,9.82
2023-01-30T08:33:41.510Z,10.40
2023-01-30T08:36:08.916Z,9.32
2023-01-30T08:38:37.109Z,9.52
2023-01-30T08:41:08.411Z,9.35
2023-01-30T08:43:35.395Z,9.48
2023-01-30T08:46:02.477Z,10.45
2023-01-30T08:48:36.715Z,9.75
2023-01-30T08:51:06.906Z,10.75
2023-01-30T08:53:33.863Z,11.48
2023-01-30T08:56:00.682Z,11.23
2023-01-30T08:58:27.486Z,12.50
2023-01-30T09:00:54.342Z,11.70
2023-01-30T09:03:21.184Z,12.57
2023-01-30T09:05:48.113Z,10.40
2023-01-30T09:08:14.918Z,11.60
2023-01-30T09:10:41.761Z,10.90
2023-01-30T09:13:11.681Z,10.77
2023-01-30T09:15:41.277Z,11.13
2023-01-30T09:18:08.191Z,10.85
2023-01-30T09:20:35.432Z,10.57
2023-01-30T09:23:02.511Z,11.20
2023-01-30T09:25:29.346Z,10.95
2023-01-30T09:27:56.274Z,12.40
2023-01-30T09:30:23.193Z,11.80
2023-01-30T09:32:50.209Z,12.07
2023-01-30T09:35:17.110Z,11.23
2023-01-30T09:37:51.362Z,11.50
2023-01-30T09:40:22.703Z,11.30
2023-01-30T09:43:08.183Z,10.85
2023-01-30T09:45:55.607Z,10.75
2023-01-30T09:48:43.596Z,9.95
2023-01-30T09:51:36.679Z,11.60
2023-01-30T09:54:16.812Z,10.38
2023-01-30T09:56:43.717Z,11.13
2023-01-30T09:59:23.728Z,10.55
2023-01-30T10:02:01.204Z,9.95
2023-01-30T10:04:40.361Z,9.10
2023-01-30T10:07:20.153Z,10.40
2023-01-30T10:10:11.242Z,9.60
2023-01-30T10:13:08.442Z,8.35
2023-01-30T10:15:46.318Z,8.10
2023-01-30T10:18:45.816Z,8.80
2023-01-30T10:21:18.425Z,8.80
2023-01-30T10:24:09.765Z,8.18
2023-01-30T10:26:36.965Z,9.33
2023-01-30T10:29:15.421Z,9.00
2023-01-30T10:31:54.454Z,8.05
2023-01-30T10:34:28.072Z,8.53
2023-01-30T10:37:02.205Z,7.50
2023-01-30T10:39:55.941Z,5.93
2023-01-30T10:43:17.734Z,8.10
2023-01-30T10:46:01.086Z,6.80
2023-01-30T10:49:19.311Z,8.70
2023-01-30T10:52:20.199Z,6.82
2023-01-30T10:54:50.319Z,8.02
2023-01-30T10:57:17.185Z,7.20
2023-01-30T11:00:05.546Z,6.90
2023-01-30T11:02:47.064Z,7.82
2023-01-30T11:05:18.535Z,7.63
2023-01-30T11:07:47.672Z,5.25
2023-01-30T11:10:32.654Z,6.63
2023-01-30T11:13:18.306Z,7.18
2023-01-30T11:15:47.856Z,7.00
2023-01-30T11:19:05.235Z,6.72
2023-01-30T11:21:07.819Z,6.70
2023-01-30T11:23:39.985Z,6.65
2023-01-30T11:26:11.630Z,7.78
2023-01-30T11:28:45.198Z,6.60
2023-01-30T11:31:40.835Z,4.90
2023-01-30T11:34:17.301Z,5.00
2023-01-30T11:36:47.185Z,5.35
2023-01-30T11:39:18.730Z,6.60
2023-01-30T11:41:48.552Z,4.93
2023-01-30T11:44:15.407Z,6.95
2023-01-30T11:46:43.429Z,6.40
2023-01-30T11:49:47.057Z,6.07
2023-01-30T11:52:05.362Z,5.85
2023-01-30T11:54:45.240Z,5.85
2023-01-30T11:57:17.576Z,6.43
2023-01-30T12:00:06.603Z,5.47
2023-01-30T12:02:37.941Z,6.43
2023-01-30T12:05:16.932Z,6.32
2023-01-30T12:07:46.878Z,5.72
2023-01-30T12:10:30.533Z,4.30
2023-01-30T12:13:02.649Z,5.72
2023-01-30T12:15:35.210Z,5.85
2023-01-30T12:18:18.639Z,5.45
2023-01-30T12:21:04.198Z,5.25
2023-01-30T12:23:40.238Z,5.25
2023-01-30T12:26:20.877Z,5.47
2023-01-30T12:29:08.003Z,5.35
2023-01-30T12:31:40.793Z,5.88
2023-01-30T12:34:10.205Z,5.88
2023-01-30T12:36:47.771Z,5.30
2023-01-30T12:39:31.652Z,6.13
2023-01-30T12:42:25.848Z,5.13
2023-01-30T12:45:01.685Z,5.40
2023-01-30T12:47:59.199Z,5.05
2023-01-30T12:50:52.057Z,5.72
2023-01-30T12:53:31.649Z,5.00
2023-01-30T12:56:13.309Z,5.40
2023-01-30T12:59:09.825Z,5.90
2023-01-30T13:02:06.966Z,4.55
2023-01-30T13:04:56.669Z,4.35
2023-01-30T13:08:01.963Z,5.07
2023-01-30T13:10:38.974Z,5.55
2023-01-30T13:13:45.944Z,4.68
2023-01-30T13:16:15.415Z,4.47
2023-01-30T13:18:54.708Z,5.65
2023-01-30T13:21:40.993Z,4.55
2023-01-30T13:24:13.863Z,3.78
2023-01-30T13:26:43.505Z,4.38
2023-01-30T13:29:43.315Z,5.47
2023-01-30T13:32:43.379Z,5.28
2023-01-30T13:35:33.303Z,4.43
2023-01-30T13:38:03.051Z,4.35
2023-01-30T13:40:38.648Z,5.38
2023-01-30T13:43:22.514Z,4.75
2023-01-30T13:45:51.754Z,5.05
2023-01-30T13:48:31.831Z,4.70
2023-01-30T13:51:12.265Z,3.97
2023-01-30T13:54:29.135Z,4.85
2023-01-30T13:57:28.630Z,4.45
2023-01-30T14:00:17.491Z,3.67
2023-01-30T14:03:24.161Z,4.40
2023-01-30T14:06:01.191Z,4.10
2023-01-30T14:08:38.596Z,4.05
2023-01-30T14:11:16.363Z,5.20
2023-01-30T14:13:53.426Z,3.97
2023-01-30T14:16:20.377Z,4.43
2023-01-30T14:18:47.261Z,4.80
2023-01-30T14:21:32.351Z,5.50
2023-01-30T14:24:04.318Z,4.10
2023-01-30T14:26:52.210Z,4.07
2023-01-30T14:29:37.963Z,3.78
2023-01-30T14:32:19.030Z,4.55
2023-01-30T14:34:48.608Z,4.97
2023-01-30T14:37:42.167Z,4.18
2023-01-30T14:40:31.160Z,4.35
2023-01-30T14:43:13.326Z,4.70
2023-01-30T14:46:00.897Z,4.80
2023-01-30T14:48:53.576Z,4.30
2023-01-30T14:51:35.773Z,5.00
2023-01-30T14:54:06.588Z,4.38
2023-01-30T14:56:44.937Z,5.30
2023-01-30T14:59:17.881Z,5.50
2023-01-30T15:02:14.307Z,5.00
2023-01-30T15:05:06.470Z,5.25
2023-01-30T15:07:51.972Z,5.47
2023-01-30T15:10:57.282Z,5.90
2023-01-30T15:13:48.748Z,6.60
2023-01-30T15:16:18.741Z,5.97
2023-01-30T15:19:17.858Z,6.35
2023-01-30T15:22:05.968Z,6.38
2023-01-30T15:24:38.729Z,7.40
2023-01-30T15:27:20.624Z,6.60
2023-01-30T15:29:50.542Z,6.45
2023-01-30T15:32:22.736Z,5.97
2023-01-30T15:34:55.622Z,6.63
2023-01-30T15:37:49.784Z,6.15
2023-01-30T15:40:17.062Z,6.13
2023-01-30T15:43:08.201Z,5.97
2023-01-30T15:46:06.172Z,5.85
2023-01-30T15:49:00.687Z,6.88
2023-01-30T15:51:29.497Z,5.88
2023-01-30T15:53:58.334Z,6.30
2023-01-30T15:56:31.460Z,6.22
2023-01-30T15:59:01.684Z,6.13
2023-01-30T16:01:28.887Z,6.68
2023-01-30T16:03:57.965Z,6.20
2023-01-30T16:06:38.050Z,6.10
2023-01-30T16:09:20.305Z,5.50
2023-01-30T16:11:48.112Z,6.32
2023-01-30T16:14:20.523Z,6.10
2023-01-30T16:16:59.001Z,5.18
2023-01-30T16:19:32.138Z,6.30
2023-01-30T16:22:05.393Z,5.32
2023-01-30T16:24:37.287Z,5.65
2023-01-30T16:27:08.614Z,6.65
2023-01-30T16:29:51.070Z,5.95
2023-01-30T16:32:19.763Z,6.00
2023-01-30T16:34:46.682Z,5.80
2023-01-30T16:37:16.492Z,6.28
2023-01-30T16:39:45.717Z,5.90
2023-01-30T16:42:27.835Z,5.43
2023-01-30T16:45:35.823Z,6.45
2023-01-30T16:48:22.856Z,6.15
2023-01-30T16:50:59.504Z,6.30
2023-01-30T16:53:29.533Z,6.00
2023-01-30T16:56:00.726Z,6.38
2023-01-30T16:58:34.471Z,6.25
2023-01-30T17:01:07.579Z,5.13
2023-01-30T17:03:40.750Z,5.50
2023-01-30T17:06:21.359Z,5.47
2023-01-30T17:08:52.260Z,5.90
2023-01-30T17:11:38.331Z,5.63
2023-01-30T17:14:22.279Z,6.82
2023-01-30T17:17:07.549Z,5.25
2023-01-30T17:19:37.992Z,6.95
2023-01-30T17:22:17.823Z,6.70
2023-01-30T17:24:44.615Z,6.30
2023-01-30T17:27:11.446Z,7.38
2023-01-30T17:29:43.159Z,7.13
2023-01-30T17:32:13.319Z,5.32
2023-01-30T17:34:41.369Z,6.60
2023-01-30T17:37:23.146Z,5.95
2023-01-30T17:39:50.148Z,6.85
2023-01-30T17:42:22.271Z,6.25
2023-01-30T17:44:49.670Z,5.82
2023-01-30T17:47:16.443Z,5.72
2023-01-30T17:49:43.338Z,6.35
2023-01-30T17:52:13.789Z,5.45
2023-01-30T17:54:41.308Z,6.50
2023-01-30T17:57:11.784Z,5.78
2023-01-30T17:59:38.587Z,5.78
2023-01-30T18:02:09.249Z,6.30
2023-01-30T18:04:36.193Z,6.22
2023-01-30T18:07:06.374Z,6.63
2023-01-30T18:09:33.264Z,5.95
2023-01-30T18:12:00.130Z,5.53
2023-01-30T18:14:26.971Z,5.57
2023-01-30T18:16:59.956Z,6.13
2023-01-30T18:19:29.057Z,6.15
2023-01-30T18:21:58.253Z,5.85
2023-01-30T18:24:25.132Z,5.95
2023-01-30T18:26:52.012Z,4.80
2023-01-30T18:29:18.893Z,5.60
2023-01-30T18:31:45.935Z,5.82
2023-01-30T18:34:12.954Z,5.28
2023-01-30T18:36:39.832Z,4.88
2023-01-30T18:39:06.648Z,5.57
2023-01-30T18:41:35.248Z,3.97
2023-01-30T18:44:05.583Z,5.28
2023-01-30T18:46:33.054Z,4.97
2023-01-30T18:49:00.335Z,5.30
2023-01-30T18:51:29.638Z,5.97
2023-01-30T18:53:56.829Z,4.95
2023-01-30T18:56:35.058Z,5.75
2023-01-30T18:59:04.276Z,5.60
2023-01-30T19:01:38.762Z,5.03
2023-01-30T19:04:08.229Z,4.53
2023-01-30T19:06:43.274Z,5.45
2023-01-30T19:09:15.417Z,4.80
2023-01-30T19:12:00.663Z,5.25
2023-01-30T19:14:27.432Z,4.80
2023-01-30T19:16:54.625Z,4.93
2023-01-30T19:19:21.940Z,5.03
2023-01-30T19:21:50.576Z,4.90
2023-01-30T19:24:18.277Z,5.60
2023-01-30T19:26:45.309Z,3.90
2023-01-30T19:29:12.158Z,3.85
2023-01-30T19:31:39.170Z,3.92
2023-01-30T19:34:06.360Z,4.63
2023-01-30T19:36:34.816Z,4.53
2023-01-30T19:39:03.631Z,3.58
2023-01-30T19:41:33.144Z,4.80
2023-01-30T19:44:02.150Z,4.78
2023-01-30T19:46:29.450Z,5.05
2023-01-30T19:48:56.585Z,5.18
2023-01-30T19:51:26.092Z,5.85
2023-01-30T19:53:58.451Z,5.00
2023-01-30T19:56:26.377Z,4.63
2023-01-30T19:58:55.301Z,4.85
2023-01-30T20:01:24.120Z,3.60
2023-01-30T20:03:51.231Z,4.10
2023-01-30T20:06:20.721Z,5.20
2023-01-30T20:08:50.209Z,5.55
2023-01-30T20:11:18.671Z,6.03
2023-01-30T20:13:46.392Z,4.00
2023-01-30T20:16:18.561Z,4.78
2023-01-30T20:18:48.155Z,5.40
2023-01-30T20:21:18.146Z,4.90
2023-01-30T20:23:46.142Z,4.68
2023-01-30T20:26:16.040Z,4.05
2023-01-30T20:28:43.197Z,4.63
2023-01-30T20:31:16.224Z,4.47
2023-01-30T20:33:43.481Z,4.40
2023-01-30T20:36:13.533Z,4.43
2023-01-30T20:38:42.127Z,3.30
2023-01-30T20:41:11.994Z,4.35
2023-01-30T20:43:40.735Z,3.72
2023-01-30T20:46:10.577Z,4.50
2023-01-30T20:48:38.767Z,4.10
2023-01-30T20:51:17.257Z,4.30
2023-01-30T20:53:58.116Z,3.50
2023-01-30T20:56:26.913Z,4.32
2023-01-30T20:58:53.703Z,4.15
2023-01-30T21:01:23.707Z,2.55
2023-01-30T21:03:52.901Z,4.25
2023-01-30T21:06:42.820Z,2.83
2023-01-30T21:09:12.870Z,3.63
2023-01-30T21:11:40.374Z,3.17
2023-01-30T21:14:07.513Z,4.00
2023-01-30T21:16:35.539Z,4.00
2023-01-30T21:19:05.499Z,4.18
2023-01-30T21:21:39.196Z,3.10
2023-01-30T21:24:09.478Z,4.95
2023-01-30T21:26:39.364Z,3.35
2023-01-30T21:29:08.406Z,3.20
2023-01-30T21:31:37.524Z,4.10
2023-01-30T21:34:05.140Z,4.18
2023-01-30T21:36:32.080Z,4.13
2023-01-30T21:39:17.671Z,3.75
2023-01-30T21:41:52.170Z,4.43
2023-01-30T21:44:20.328Z,3.42
2023-01-30T21:46:48.610Z,3.97
2023-01-30T21:49:16.990Z,6.00
2023-01-30T21:51:45.451Z,4.63
2023-01-30T21:54:12.898Z,3.50
2023-01-30T21:56:40.268Z,4.25
2023-01-30T21:59:07.231Z,3.97
2023-01-30T22:01:35.608Z,3.58
2023-01-30T22:04:09.285Z,5.13
2023-01-30T22:06:37.883Z,4.13
2023-01-30T22:09:05.732Z,3.60
2023-01-30T22:11:32.589Z,3.58
2023-01-30T22:13:59.386Z,3.53
2023-01-30T22:16:28.604Z,4.55
2023-01-30T22:19:01.125Z,4.40
2023-01-30T22:21:31.646Z,4.63
2023-01-30T22:23:58.531Z,4.78
2023-01-30T22:26:26.320Z,4.78
2023-01-30T22:28:57.416Z,3.95
2023-01-30T22:31:25.792Z,4.32
2023-01-30T22:33:55.014Z,4.60
2023-01-30T22:36:28.044Z,4.25
2023-01-30T22:38:55.717Z,3.90
2023-01-30T22:41:24.681Z,4.47
2023-01-30T22:43:56.447Z,4.63
2023-01-30T22:46:25.594Z,4.35
2023-01-30T22:48:53.357Z,4.28
2023-01-30T22:51:25.517Z,4.25
2023-01-30T22:53:58.411Z,4.78
2023-01-30T22:56:27.963Z,3.72
2023-01-30T22:58:55.235Z,3.70
2023-01-30T23:01:29.849Z,3.85
2023-01-30T23:03:59.708Z,3.50
2023-01-30T23:06:27.757Z,3.70
2023-01-30T23:08:55.527Z,3.70
2023-01-30T23:11:28.567Z,3.40
2023-01-30T23:13:57.779Z,3.45
2023-01-30T23:16:27.738Z,3.83
2023-01-30T23:19:03.495Z,3.20
2023-01-30T23:21:37.128Z,4.13
2023-01-30T23:24:07.600Z,3.45
2023-01-30T23:26:37.229Z,3.40
2023-01-30T23:29:09.677Z,3.15
2023-01-30T23:31:36.860Z,3.88
2023-01-30T23:34:06.303Z,3.55
2023-01-30T23:36:33.732Z,3.33
2023-01-30T23:39:01.635Z,4.60
2023-01-30T23:41:31.151Z,3.90
2023-01-30T23:43:59.359Z,3.55
2023-01-30T23:46:35.187Z,3.67
2023-01-30T23:49:07.844Z,3.60
2023-01-30T23:51:37.973Z,3.55
2023-01-30T23:54:05.894Z,2.47
2023-01-30T23:56:35.550Z,3.85
2023-01-30T23:59:03.615Z,3.10
